createdAt,value
2019-04-20T00:00:06.697Z,18.10
2019-04-20T00:02:37.747Z,17.87
2019-04-20T00:05:07.907Z,22.52
2019-04-20T00:07:37.654Z,19.75
2019-04-20T00:10:13.743Z,20.25
2019-04-20T00:12:54.570Z,17.92
2019-04-20T00:15:11.128Z,18.15
2019-04-20T00:17:46.009Z,21.05
2019-04-20T00:20:18.980Z,21.73
2019-04-20T00:22:58.160Z,20.75
2019-04-20T00:25:49.809Z,24.52
2019-04-20T00:28:24.120Z,23.07
2019-04-20T00:30:53.129Z,22.55
2019-04-20T00:33:26.825Z,22.32
2019-04-20T00:35:42.128Z,22.02
2019-04-20T00:38:11.918Z,24.80
2019-04-20T00:40:41.388Z,23.83
2019-04-20T00:43:13.046Z,24.65
2019-04-20T00:45:46.755Z,23.65
2019-04-20T00:48:22.437Z,26.27
2019-04-20T00:50:59.296Z,26.45
2019-04-20T00:53:22.643Z,26.30
2019-04-20T00:55:46.424Z,24.98
2019-04-20T00:58:24.478Z,24.45
2019-04-20T01:01:07.397Z,29.12
2019-04-20T01:03:34.042Z,27.90
2019-04-20T01:06:13.409Z,27.58
2019-04-20T01:08:29.666Z,28.62
2019-04-20T01:10:59.863Z,28.23
2019-04-20T01:13:31.641Z,29.70
2019-04-20T01:16:08.705Z,28.35
2019-04-20T01:18:33.862Z,29.45
2019-04-20T01:21:06.753Z,30.23
2019-04-20T01:23:40.411Z,27.85
2019-04-20T01:26:11.139Z,28.85
2019-04-20T01:28:51.126Z,30.32
2019-04-20T01:31:18.752Z,30.25
2019-04-20T01:33:50.627Z,30.85
2019-04-20T01:36:33.574Z,28.60
2019-04-20T01:38:56.743Z,30.08
2019-04-20T01:41:14.045Z,32.93
2019-04-20T01:43:44.256Z,32.75
2019-04-20T01:46:18.249Z,32.15
2019-04-20T01:48:46.316Z,36.23
2019-04-20T01:51:21.305Z,33.60
2019-04-20T01:54:07.090Z,35.52
2019-04-20T01:56:37.377Z,34.73
2019-04-20T01:59:10.710Z,35.00
2019-04-20T02:01:37.666Z,34.65
2019-04-20T02:04:15.080Z,36.28
2019-04-20T02:06:46.430Z,35.33
2019-04-20T02:09:15.726Z,37.63
2019-04-20T02:11:45.367Z,33.73
2019-04-20T02:14:18.924Z,36.48
2019-04-20T02:16:49.611Z,41.65
2019-04-20T02:19:33.406Z,44.20
2019-04-20T02:22:02.589Z,38.60
2019-04-20T02:24:19.505Z,39.27
2019-04-20T02:26:51.562Z,38.15
2019-04-20T02:29:46.256Z,39.83
2019-04-20T02:32:23.793Z,41.70
2019-04-20T02:35:03.430Z,44.63
2019-04-20T02:42:47.678Z,38.23
2019-04-20T02:47:40.392Z,42.10
2019-04-20T02:50:14.968Z,39.13
2019-04-20T02:52:48.948Z,41.90
2019-04-20T02:57:47.347Z,41.95
2019-04-20T03:02:27.237Z,42.00
2019-04-20T03:04:56.207Z,39.45
2019-04-20T03:07:30.382Z,43.35
2019-04-20T03:10:08.402Z,39.92
2019-04-20T03:12:38.351Z,41.65
2019-04-20T03:15:02.840Z,43.83
2019-04-20T03:17:49.359Z,40.03
2019-04-20T03:20:14.336Z,41.25
2019-04-20T03:23:05.506Z,44.08
2019-04-20T03:25:19.808Z,46.33
2019-04-20T03:27:45.986Z,42.08
2019-04-20T03:33:28.770Z,42.53
2019-04-20T03:35:51.499Z,42.78
2019-04-20T03:38:14.659Z,42.20
2019-04-20T03:40:44.386Z,46.23
2019-04-20T03:42:57.043Z,47.17
2019-04-20T03:45:28.181Z,48.35
2019-04-20T03:48:09.120Z,44.10
2019-04-20T03:50:54.614Z,46.42
2019-04-20T03:53:22.644Z,45.12
2019-04-20T03:55:50.081Z,48.35
2019-04-20T03:58:40.110Z,47.08
2019-04-20T04:01:27.269Z,46.08
2019-04-20T04:03:59.130Z,47.88
2019-04-20T04:06:17.746Z,45.33
2019-04-20T04:08:55.514Z,43.90
2019-04-20T04:11:32.649Z,44.85
2019-04-20T04:13:43.850Z,42.73
2019-04-20T04:16:17.318Z,49.90
2019-04-20T04:18:49.643Z,51.73
2019-04-20T04:21:27.107Z,48.98
2019-04-20T04:24:02.509Z,50.23
2019-04-20T04:26:37.826Z,43.52
2019-04-20T04:29:13.696Z,44.63
2019-04-20T04:31:49.179Z,46.53
2019-04-20T04:34:09.349Z,47.73
2019-04-20T04:36:46.220Z,47.70
2019-04-20T04:39:21.021Z,48.10
2019-04-20T04:41:56.044Z,50.00
2019-04-20T04:44:11.054Z,47.33
2019-04-20T04:46:33.931Z,48.63
2019-04-20T04:49:10.193Z,45.63
2019-04-20T04:51:42.681Z,43.83
2019-04-20T04:54:16.561Z,46.77
2019-04-20T04:56:35.554Z,46.28
2019-04-20T04:59:05.013Z,45.80
2019-04-20T05:01:36.985Z,46.13
2019-04-20T05:04:24.792Z,45.43
2019-04-20T05:06:53.230Z,49.90
2019-04-20T05:09:11.895Z,47.85
2019-04-20T05:11:40.550Z,46.83
2019-04-20T05:14:15.018Z,44.45
2019-04-20T05:16:54.608Z,42.43
2019-04-20T05:19:38.191Z,41.50
2019-04-20T05:22:09.818Z,42.80
2019-04-20T05:24:34.884Z,42.70
2019-04-20T05:29:42.776Z,42.55
2019-04-20T05:32:18.004Z,40.17
2019-04-20T05:35:07.403Z,39.63
2019-04-20T05:37:53.511Z,42.73
2019-04-20T05:40:10.678Z,39.67
2019-04-20T05:42:35.922Z,36.58
2019-04-20T05:45:07.628Z,33.50
2019-04-20T05:47:41.557Z,34.00
2019-04-20T05:50:05.041Z,32.45
2019-04-20T05:52:50.891Z,33.55
2019-04-20T05:55:14.415Z,34.67
2019-04-20T05:57:50.753Z,37.53
2019-04-20T06:00:23.470Z,33.45
2019-04-20T06:02:52.405Z,30.88
2019-04-20T06:05:23.990Z,34.98
2019-04-20T06:07:48.846Z,32.23
2019-04-20T06:10:26.004Z,35.55
2019-04-20T06:12:51.614Z,30.32
2019-04-20T06:15:36.657Z,34.48
2019-04-20T06:18:06.302Z,35.15
2019-04-20T06:21:08.495Z,31.95
2019-04-20T06:23:40.965Z,39.63
2019-04-20T06:28:48.933Z,35.20
2019-04-20T06:31:24.515Z,33.00
2019-04-20T06:34:30.119Z,32.78
2019-04-20T06:39:32.607Z,38.33
2019-04-20T06:42:15.354Z,38.55
2019-04-20T06:49:42.189Z,35.10
2019-04-20T06:52:15.348Z,37.60
2019-04-20T06:54:42.150Z,32.78
2019-04-20T06:57:18.114Z,34.60
2019-04-20T07:00:04.099Z,34.27
2019-04-20T07:02:22.237Z,35.05
2019-04-20T07:07:19.583Z,32.33
2019-04-20T07:12:16.774Z,34.50
2019-04-20T07:14:43.848Z,35.90
2019-04-20T07:17:43.945Z,31.75
2019-04-20T07:25:02.368Z,36.90
2019-04-20T07:27:35.441Z,33.18
2019-04-20T07:30:08.069Z,34.15
2019-04-20T07:32:42.672Z,32.95
2019-04-20T07:35:08.199Z,33.33
2019-04-20T07:38:05.221Z,35.05
2019-04-20T07:40:16.316Z,34.40
2019-04-20T07:42:49.478Z,31.45
2019-04-20T07:45:24.152Z,33.20
2019-04-20T07:48:07.822Z,32.30
2019-04-20T07:50:12.910Z,33.42
2019-04-20T07:52:38.471Z,28.12
2019-04-20T07:57:47.370Z,28.15
2019-04-20T08:00:27.909Z,31.25
2019-04-20T08:03:18.576Z,31.17
2019-04-20T08:05:46.659Z,30.25
2019-04-20T08:08:24.837Z,30.83
2019-04-20T08:10:54.257Z,30.20
2019-04-20T08:13:40.299Z,29.80
2019-04-20T08:16:00.752Z,27.93
2019-04-20T08:18:32.237Z,32.65
2019-04-20T08:21:02.434Z,30.85
2019-04-20T08:23:34.759Z,31.05
2019-04-20T08:25:54.380Z,28.27
2019-04-20T08:28:29.388Z,30.37
2019-04-20T08:31:09.386Z,28.38
2019-04-20T08:33:58.201Z,29.00
2019-04-20T08:39:09.118Z,25.72
2019-04-20T08:41:12.907Z,27.05
2019-04-20T08:44:11.386Z,26.95
2019-04-20T08:46:21.939Z,26.65
2019-04-20T08:48:52.023Z,27.42
2019-04-20T08:51:25.497Z,24.55
2019-04-20T08:53:54.040Z,26.82
2019-04-20T08:56:18.766Z,25.82
2019-04-20T08:58:38.868Z,26.05
2019-04-20T09:01:13.920Z,24.35
2019-04-20T09:03:51.301Z,26.97
2019-04-20T09:06:29.533Z,25.32
2019-04-20T09:08:57.777Z,23.30
2019-04-20T09:11:38.494Z,23.77
2019-04-20T09:13:55.275Z,21.37
2019-04-20T09:16:26.894Z,24.45
2019-04-20T09:18:59.886Z,22.30
2019-04-20T09:21:35.546Z,22.73
2019-04-20T09:24:21.709Z,19.55
2019-04-20T09:26:47.731Z,25.60
2019-04-20T09:29:12.346Z,18.67
2019-04-20T09:31:43.702Z,20.55
2019-04-20T09:34:20.103Z,16.90
2019-04-20T09:36:54.983Z,22.77
2019-04-20T09:39:33.866Z,19.12
2019-04-20T09:42:03.067Z,17.75
2019-04-20T09:44:40.912Z,18.98
2019-04-20T09:47:07.396Z,21.57
2019-04-20T09:49:54.384Z,19.42
2019-04-20T09:52:28.029Z,18.50
2019-04-20T09:54:59.910Z,21.30
2019-04-20T09:57:35.042Z,28.52
2019-04-20T10:00:04.290Z,18.80
2019-04-20T10:02:23.634Z,18.10
2019-04-20T10:04:47.717Z,21.10
2019-04-20T10:07:21.119Z,20.82
2019-04-20T10:09:49.053Z,19.05
2019-04-20T10:12:19.820Z,18.65
2019-04-20T10:14:49.435Z,18.77
2019-04-20T10:17:20.212Z,22.73
2019-04-20T10:19:49.668Z,16.52
2019-04-20T10:22:20.376Z,22.27
2019-04-20T10:24:50.926Z,19.73
2019-04-20T10:27:21.028Z,22.33
2019-04-20T10:29:51.450Z,21.23
2019-04-20T10:32:25.090Z,20.27
2019-04-20T10:34:52.744Z,18.97
2019-04-20T10:37:24.042Z,18.20
2019-04-20T10:39:54.438Z,22.15
2019-04-20T10:42:26.085Z,19.90
2019-04-20T10:44:58.566Z,16.87
2019-04-20T10:47:27.296Z,20.37
2019-04-20T10:49:58.780Z,20.80
2019-04-20T10:52:29.799Z,21.97
2019-04-20T10:55:00.778Z,18.65
2019-04-20T10:57:31.758Z,18.07
2019-04-20T11:00:01.791Z,17.35
2019-04-20T11:02:31.932Z,15.60
2019-04-20T11:05:02.592Z,14.25
2019-04-20T11:07:34.671Z,20.10
2019-04-20T11:10:15.712Z,15.38
2019-04-20T11:12:44.772Z,17.30
2019-04-20T11:15:14.647Z,14.38
2019-04-20T11:17:45.976Z,16.65
2019-04-20T11:20:19.244Z,12.90
2019-04-20T11:22:48.627Z,12.70
2019-04-20T11:25:18.065Z,16.95
2019-04-20T11:27:48.070Z,11.60
2019-04-20T11:30:20.272Z,12.78
2019-04-20T11:32:51.937Z,12.00
2019-04-20T11:35:28.033Z,13.40
2019-04-20T11:37:53.443Z,10.48
2019-04-20T11:40:23.290Z,10.78
2019-04-20T11:42:53.427Z,9.20
2019-04-20T11:45:24.504Z,10.20
2019-04-20T11:47:55.775Z,9.53
2019-04-20T11:50:25.429Z,12.70
2019-04-20T11:52:55.317Z,10.32
2019-04-20T11:55:24.955Z,9.03
2019-04-20T11:57:54.625Z,9.53
2019-04-20T12:00:44.306Z,9.78
2019-04-20T12:03:16.325Z,10.15
2019-04-20T12:05:45.996Z,10.82
2019-04-20T12:08:11.321Z,9.58
2019-04-20T12:10:43.850Z,10.90
2019-04-20T12:13:14.588Z,9.75
2019-04-20T12:15:43.457Z,10.07
2019-04-20T12:18:15.754Z,14.30
2019-04-20T12:20:45.345Z,10.68
2019-04-20T12:23:15.960Z,11.63
2019-04-20T12:25:46.304Z,9.83
2019-04-20T12:28:15.916Z,9.98
2019-04-20T12:30:45.970Z,12.28
2019-04-20T12:33:15.654Z,13.13
2019-04-20T12:35:45.319Z,11.03
2019-04-20T12:38:17.145Z,9.85
2019-04-20T12:40:48.373Z,12.18
2019-04-20T12:43:19.085Z,11.08
2019-04-20T12:45:49.667Z,10.15
2019-04-20T12:48:21.790Z,11.48
2019-04-20T12:50:50.906Z,9.85
2019-04-20T12:53:20.547Z,11.38
2019-04-20T12:55:50.714Z,12.15
2019-04-20T12:58:20.910Z,12.43
2019-04-20T13:00:54.368Z,10.75
2019-04-20T13:03:24.036Z,14.45
2019-04-20T13:05:54.311Z,10.68
2019-04-20T13:08:30.352Z,11.50
2019-04-20T13:10:58.247Z,14.53
2019-04-20T13:13:30.424Z,9.85
2019-04-20T13:16:14.340Z,14.13
2019-04-20T13:18:45.583Z,14.30
2019-04-20T13:21:19.025Z,12.60
2019-04-20T13:23:49.074Z,10.95
2019-04-20T13:26:19.339Z,10.93
2019-04-20T13:28:48.897Z,11.63
2019-04-20T13:31:18.294Z,13.15
2019-04-20T13:33:49.477Z,12.05
2019-04-20T13:36:19.956Z,14.18
2019-04-20T13:38:50.532Z,13.83
2019-04-20T13:41:20.011Z,13.10
2019-04-20T13:43:50.255Z,12.58
2019-04-20T13:46:21.062Z,10.65
2019-04-20T13:48:51.071Z,12.25
2019-04-20T13:51:23.016Z,9.60
2019-04-20T13:53:53.275Z,11.35
2019-04-20T13:56:24.102Z,13.65
2019-04-20T13:58:56.215Z,11.33
2019-04-20T14:01:37.011Z,12.25
2019-04-20T14:04:08.509Z,13.60
2019-04-20T14:06:39.501Z,15.60
2019-04-20T14:09:09.843Z,11.95
2019-04-20T14:11:41.268Z,13.13
2019-04-20T14:14:11.063Z,12.70
2019-04-20T14:16:41.200Z,10.95
2019-04-20T14:19:11.290Z,10.55
2019-04-20T14:21:41.759Z,15.63
2019-04-20T14:24:11.420Z,12.95
2019-04-20T14:26:42.880Z,13.80
2019-04-20T14:29:14.681Z,12.37
2019-04-20T14:31:44.339Z,15.45
2019-04-20T14:34:15.080Z,15.75
2019-04-20T14:36:44.655Z,13.80
2019-04-20T14:39:14.191Z,15.93
2019-04-20T14:41:44.501Z,17.92
2019-04-20T14:44:14.079Z,14.35
2019-04-20T14:46:43.549Z,13.32
2019-04-20T14:49:12.955Z,17.90
2019-04-20T14:51:43.683Z,16.12
2019-04-20T14:54:13.859Z,16.37
2019-04-20T14:56:45.435Z,16.48
2019-04-20T14:59:19.928Z,16.20
2019-04-20T15:01:52.424Z,14.55
2019-04-20T15:04:24.945Z,14.03
2019-04-20T15:06:53.122Z,17.12
2019-04-20T15:09:22.454Z,15.58
2019-04-20T15:11:52.716Z,14.68
2019-04-20T15:14:22.795Z,15.05
2019-04-20T15:16:52.850Z,16.90
2019-04-20T15:19:25.328Z,18.37
2019-04-20T15:21:57.753Z,19.90
2019-04-20T15:26:56.787Z,16.42
2019-04-20T15:29:26.436Z,15.55
2019-04-20T15:31:56.515Z,16.42
2019-04-20T15:34:26.749Z,17.57
2019-04-20T15:36:56.248Z,14.65
2019-04-20T15:39:25.597Z,18.32
2019-04-20T15:41:54.944Z,16.57
2019-04-20T15:44:25.118Z,16.12
2019-04-20T15:46:55.223Z,16.25
2019-04-20T15:49:26.312Z,12.68
2019-04-20T15:51:56.032Z,16.15
2019-04-20T15:54:27.505Z,15.72
2019-04-20T15:57:02.382Z,20.05
2019-04-20T15:59:28.555Z,16.35
2019-04-20T16:02:03.167Z,12.60
2019-04-20T16:04:50.785Z,14.95
2019-04-20T16:07:23.364Z,17.45
2019-04-20T16:09:53.268Z,14.28
2019-04-20T16:12:22.919Z,18.92
2019-04-20T16:14:53.501Z,18.62
2019-04-20T16:17:30.716Z,17.95
2019-04-20T16:20:01.383Z,17.05
2019-04-20T16:22:26.837Z,13.08
2019-04-20T16:25:14.418Z,17.00
2019-04-20T16:27:43.856Z,19.87
2019-04-20T16:30:13.623Z,15.88
2019-04-20T16:32:44.798Z,13.65
2019-04-20T16:35:14.661Z,12.65
2019-04-20T16:37:44.437Z,14.95
2019-04-20T16:40:15.692Z,16.73
2019-04-20T16:42:45.743Z,15.80
2019-04-20T16:45:17.066Z,18.07
2019-04-20T16:47:48.114Z,16.30
2019-04-20T16:50:19.185Z,14.13
2019-04-20T16:52:48.913Z,15.23
2019-04-20T16:55:18.826Z,16.93
2019-04-20T16:57:50.944Z,21.23
2019-04-20T17:00:21.140Z,17.25
2019-04-20T17:02:52.157Z,15.45
2019-04-20T17:05:23.040Z,15.53
2019-04-20T17:07:57.397Z,17.62
2019-04-20T17:10:28.867Z,19.85
2019-04-20T17:12:59.944Z,18.25
2019-04-20T17:15:29.697Z,19.35
2019-04-20T17:17:59.107Z,19.80
2019-04-20T17:20:28.858Z,18.67
2019-04-20T17:22:58.450Z,16.42
2019-04-20T17:25:28.061Z,16.40
2019-04-20T17:27:59.553Z,22.82
2019-04-20T17:30:44.232Z,20.08
2019-04-20T17:33:21.272Z,16.97
2019-04-20T17:35:57.362Z,16.02
2019-04-20T17:38:22.331Z,16.00
2019-04-20T17:41:08.695Z,17.65
2019-04-20T17:43:31.300Z,17.35
2019-04-20T17:46:06.979Z,14.60
2019-04-20T17:48:38.781Z,17.67
2019-04-20T17:51:20.459Z,20.62
2019-04-20T17:53:50.060Z,17.05
2019-04-20T17:56:12.359Z,19.73
2019-04-20T17:58:43.910Z,15.55
2019-04-20T18:01:47.829Z,17.25
2019-04-20T18:06:50.117Z,16.35
2019-04-20T18:09:34.647Z,18.95
2019-04-20T18:11:47.234Z,18.92
2019-04-20T18:14:34.116Z,18.25
2019-04-20T18:17:05.835Z,17.50
2019-04-20T18:19:22.924Z,23.05
2019-04-20T18:24:52.393Z,19.95
2019-04-20T18:27:24.874Z,19.05
2019-04-20T18:29:48.059Z,19.25
2019-04-20T18:32:03.020Z,19.98
2019-04-20T18:34:44.970Z,17.98
2019-04-20T18:37:16.914Z,18.92
2019-04-20T18:39:54.813Z,20.25
2019-04-20T18:42:23.416Z,17.57
2019-04-20T18:45:09.277Z,16.32
2019-04-20T18:50:01.130Z,18.32
2019-04-20T18:52:21.969Z,19.60
2019-04-20T18:54:55.284Z,23.42
2019-04-20T18:57:27.215Z,19.30
2019-04-20T18:59:56.435Z,19.50
2019-04-20T19:02:30.907Z,18.62
2019-04-20T19:04:58.628Z,20.43
2019-04-20T19:07:27.980Z,23.67
2019-04-20T19:10:04.355Z,20.82
2019-04-20T19:12:39.562Z,20.17
2019-04-20T19:20:12.052Z,20.65
2019-04-20T19:22:41.990Z,23.12
2019-04-20T19:25:18.444Z,19.80
2019-04-20T19:27:48.703Z,19.75
2019-04-20T19:30:25.713Z,23.95
2019-04-20T19:33:04.795Z,26.30
2019-04-20T19:35:30.894Z,19.02
2019-04-20T19:37:59.514Z,19.85
2019-04-20T19:40:33.811Z,19.35
2019-04-20T19:43:02.422Z,21.48
2019-04-20T19:46:15.274Z,18.57
2019-04-20T19:48:09.318Z,21.87
2019-04-20T19:50:53.734Z,18.00
2019-04-20T19:53:22.955Z,20.08
2019-04-20T19:55:41.171Z,26.02
2019-04-20T19:58:11.485Z,18.67
2019-04-20T20:00:38.619Z,17.87
2019-04-20T20:03:09.908Z,20.95
2019-04-20T20:05:45.031Z,21.95
2019-04-20T20:08:17.696Z,21.70
2019-04-20T20:10:45.495Z,22.67
2019-04-20T20:13:15.156Z,24.18
2019-04-20T20:15:45.554Z,21.73
2019-04-20T20:18:34.329Z,20.52
2019-04-20T20:20:59.667Z,23.90
2019-04-20T20:23:18.248Z,24.45
2019-04-20T20:25:49.780Z,23.20
2019-04-20T20:28:30.799Z,22.62
2019-04-20T20:31:02.005Z,23.87
2019-04-20T20:33:39.478Z,24.63
2019-04-20T20:36:03.854Z,27.22
2019-04-20T20:38:32.442Z,28.38
2019-04-20T20:41:05.654Z,26.75
2019-04-20T20:43:43.520Z,28.02
2019-04-20T20:46:12.369Z,27.45
2019-04-20T20:48:54.336Z,26.35
2019-04-20T20:53:45.666Z,28.17
2019-04-20T20:56:12.002Z,21.93
2019-04-20T20:58:48.487Z,22.37
2019-04-20T21:01:14.118Z,24.92
2019-04-20T21:03:43.399Z,23.62
2019-04-20T21:06:09.682Z,22.77
2019-04-20T21:08:45.618Z,22.95
2019-04-20T21:11:13.181Z,21.77
2019-04-20T21:13:46.453Z,24.10
2019-04-20T21:16:19.742Z,20.50
2019-04-20T21:19:02.055Z,24.52
2019-04-20T21:21:27.411Z,19.30
2019-04-20T21:23:54.937Z,21.65
2019-04-20T21:28:52.165Z,21.55
2019-04-20T21:33:53.428Z,23.98
2019-04-20T21:36:27.545Z,21.52
2019-04-20T21:38:54.238Z,26.25
2019-04-20T21:41:25.394Z,23.55
2019-04-20T21:43:55.898Z,22.15
2019-04-20T21:46:30.744Z,22.55
2019-04-20T21:49:09.602Z,21.68
2019-04-20T21:51:37.037Z,22.55
2019-04-20T21:54:00.352Z,27.32
2019-04-20T21:56:30.087Z,24.50
2019-04-20T21:59:02.483Z,25.23
2019-04-20T22:01:37.840Z,25.55
2019-04-20T22:04:02.694Z,21.10
2019-04-20T22:06:32.349Z,25.95
2019-04-20T22:09:04.034Z,22.52
2019-04-20T22:14:11.677Z,21.20
2019-04-20T22:16:38.938Z,19.30
2019-04-20T22:19:20.946Z,21.48
2019-04-20T22:21:50.362Z,26.97
2019-04-20T22:24:26.598Z,24.12
2019-04-20T22:26:53.822Z,22.45
2019-04-20T22:29:12.033Z,25.55
2019-04-20T22:31:46.185Z,22.02
2019-04-20T22:34:19.056Z,20.35
2019-04-20T22:36:48.448Z,23.00
2019-04-20T22:39:23.512Z,21.30
2019-04-20T22:41:58.602Z,24.07
2019-04-20T22:44:26.319Z,23.57
2019-04-20T22:46:54.284Z,20.32
2019-04-20T22:49:43.081Z,20.70
2019-04-20T22:52:02.805Z,22.22
2019-04-20T22:54:40.419Z,23.22
2019-04-20T22:57:08.291Z,24.43
2019-04-20T22:59:38.310Z,23.32
2019-04-20T23:02:01.191Z,23.83
2019-04-20T23:04:30.997Z,20.88
2019-04-20T23:07:00.965Z,22.90
2019-04-20T23:09:32.817Z,26.20
2019-04-20T23:12:08.055Z,22.27
2019-04-20T23:14:34.216Z,22.25
2019-04-20T23:17:04.347Z,25.57
2019-04-20T23:19:42.864Z,23.73
2019-04-20T23:22:08.545Z,22.40
2019-04-20T23:24:37.379Z,21.85
2019-04-20T23:27:13.974Z,22.67
2019-04-20T23:29:41.401Z,23.65
2019-04-20T23:32:11.926Z,26.37
2019-04-20T23:34:42.675Z,25.25
2019-04-20T23:37:17.044Z,23.20
2019-04-20T23:39:46.977Z,26.85
2019-04-20T23:42:16.165Z,21.35
2019-04-20T23:44:54.178Z,24.50
2019-04-20T23:50:12.413Z,21.73
2019-04-20T23:52:48.782Z,26.10
2019-04-20T23:55:04.127Z,24.95
2019-04-20T23:57:29.532Z,21.15
